createdAt,value
2018-08-13T00:01:52.198Z,1002.75
2018-08-13T00:02:52.201Z,1002.72
2018-08-13T00:04:45.534Z,1002.67
2018-08-13T00:05:45.551Z,1002.72
2018-08-13T00:07:38.885Z,1002.67
2018-08-13T00:08:38.892Z,1002.66
2018-08-13T00:10:32.216Z,1002.60
2018-08-13T00:11:32.232Z,1002.57
2018-08-13T00:13:25.582Z,1002.61
2018-08-13T00:14:25.586Z,1002.65
2018-08-13T00:16:18.931Z,1002.61
2018-08-13T00:17:18.939Z,1002.63
2018-08-13T00:19:12.296Z,1002.55
2018-08-13T00:20:12.316Z,1002.54
2018-08-13T00:22:05.653Z,1002.48
2018-08-13T00:23:05.660Z,1002.48
2018-08-13T00:24:59.009Z,1002.44
2018-08-13T00:25:59.028Z,1002.46
2018-08-13T00:27:52.373Z,1002.44
2018-08-13T00:28:52.381Z,1002.45
2018-08-13T00:30:45.763Z,1002.50
2018-08-13T00:31:45.783Z,1002.52
2018-08-13T00:33:39.128Z,1002.46
2018-08-13T00:34:39.136Z,1002.46
2018-08-13T00:36:32.481Z,1002.41
2018-08-13T00:37:32.489Z,1002.40
2018-08-13T00:39:25.819Z,1002.44
2018-08-13T00:40:25.837Z,1002.39
2018-08-13T00:42:19.180Z,1002.38
2018-08-13T00:43:19.187Z,1002.36
2018-08-13T00:45:12.533Z,1002.40
2018-08-13T00:46:12.543Z,1002.35
2018-08-13T00:48:05.890Z,1002.38
2018-08-13T00:49:05.891Z,1002.35
2018-08-13T00:50:58.807Z,1002.36
2018-08-13T00:51:58.822Z,1002.36
2018-08-13T00:53:52.174Z,1002.36
2018-08-13T00:54:52.181Z,1002.34
2018-08-13T00:56:45.514Z,1002.34
2018-08-13T00:57:45.522Z,1002.34
2018-08-13T00:59:38.868Z,1002.28
2018-08-13T01:00:38.887Z,1002.28
2018-08-13T01:02:32.221Z,1002.24
2018-08-13T01:03:32.227Z,1002.19
2018-08-13T01:05:25.559Z,1002.22
2018-08-13T01:06:25.578Z,1002.13
2018-08-13T01:08:18.950Z,1002.14
2018-08-13T01:09:18.958Z,1002.11
2018-08-13T01:11:12.337Z,1002.11
2018-08-13T01:12:12.351Z,1002.07
2018-08-13T01:14:05.693Z,1002.04
2018-08-13T01:15:05.695Z,1002.09
2018-08-13T01:16:59.044Z,1002.06
2018-08-13T01:17:59.048Z,1002.03
2018-08-13T01:19:52.393Z,1002.01
2018-08-13T01:20:52.410Z,1002.05
2018-08-13T01:22:45.757Z,1002.01
2018-08-13T01:23:45.763Z,1001.97
2018-08-13T01:25:39.109Z,1001.93
2018-08-13T01:26:39.129Z,1001.93
2018-08-13T01:28:32.462Z,1001.90
2018-08-13T01:29:32.469Z,1001.91
2018-08-13T01:31:25.810Z,1001.85
2018-08-13T01:32:25.825Z,1001.88
2018-08-13T01:34:19.174Z,1001.91
2018-08-13T01:35:19.181Z,1001.88
2018-08-13T01:37:12.543Z,1001.90
2018-08-13T01:38:12.551Z,1001.86
2018-08-13T01:39:12.572Z,1001.88
2018-08-13T01:40:12.590Z,1001.81
2018-08-13T01:41:12.610Z,1001.82
2018-08-13T01:42:12.630Z,1001.83
2018-08-13T01:43:12.652Z,1001.83
2018-08-13T01:44:12.673Z,1001.83
2018-08-13T01:45:12.692Z,1001.83
2018-08-13T01:46:12.720Z,1001.82
2018-08-13T01:47:12.733Z,1001.78
2018-08-13T01:48:12.752Z,1001.78
2018-08-13T01:49:12.773Z,1001.79
2018-08-13T01:50:12.806Z,1001.78
2018-08-13T01:51:12.813Z,1001.78
2018-08-13T01:52:12.833Z,1001.77
2018-08-13T01:53:12.853Z,1001.77
2018-08-13T01:54:12.875Z,1001.72
2018-08-13T01:55:12.896Z,1001.72
2018-08-13T01:56:12.922Z,1001.71
2018-08-13T01:57:12.935Z,1001.73
2018-08-13T01:58:12.955Z,1001.69
2018-08-13T01:59:12.975Z,1001.71
2018-08-13T02:00:12.995Z,1001.70
2018-08-13T02:01:13.029Z,1001.65
2018-08-13T02:02:13.043Z,1001.61
2018-08-13T02:03:13.057Z,1001.63
2018-08-13T02:04:13.077Z,1001.57
2018-08-13T02:05:13.095Z,1001.58
2018-08-13T02:06:13.125Z,1001.59
2018-08-13T02:07:13.139Z,1001.58
2018-08-13T02:08:13.157Z,1001.56
2018-08-13T02:09:13.177Z,1001.53
2018-08-13T02:10:13.201Z,1001.57
2018-08-13T02:11:13.219Z,1001.48
2018-08-13T02:12:13.239Z,1001.51
2018-08-13T02:13:13.259Z,1001.50
2018-08-13T02:14:13.282Z,1001.46
2018-08-13T02:15:13.299Z,1001.45
2018-08-13T02:16:13.319Z,1001.41
2018-08-13T02:17:13.340Z,1001.38
2018-08-13T02:18:13.361Z,1001.40
2018-08-13T02:19:13.380Z,1001.30
2018-08-13T02:20:13.402Z,1001.30
2018-08-13T02:21:13.435Z,1001.25
2018-08-13T02:22:13.443Z,1001.32
2018-08-13T02:23:13.463Z,1001.30
2018-08-13T02:24:13.483Z,1001.26
2018-08-13T02:25:13.506Z,1001.19
2018-08-13T02:26:13.520Z,1001.19
2018-08-13T02:27:13.544Z,1001.15
2018-08-13T02:28:13.564Z,1001.15
2018-08-13T02:29:13.583Z,1001.09
2018-08-13T02:30:13.605Z,1001.11
2018-08-13T02:31:13.627Z,1001.09
2018-08-13T02:32:13.645Z,1001.06
2018-08-13T02:33:13.664Z,1001.01
2018-08-13T02:34:13.683Z,1001.02
2018-08-13T02:35:13.712Z,1000.97
2018-08-13T02:36:13.724Z,1000.95
2018-08-13T02:37:13.747Z,1001.00
2018-08-13T02:38:13.765Z,1001.03
2018-08-13T02:39:13.869Z,1000.99
2018-08-13T02:40:13.808Z,1000.94
2018-08-13T02:41:13.827Z,1000.92
2018-08-13T02:42:13.848Z,1000.88
2018-08-13T02:43:13.868Z,1000.91
2018-08-13T02:44:13.887Z,1000.89
2018-08-13T02:45:13.906Z,1000.80
2018-08-13T02:46:13.928Z,1000.80
2018-08-13T02:47:13.948Z,1000.89
2018-08-13T02:48:13.971Z,1000.85
2018-08-13T02:49:13.988Z,1000.84
2018-08-13T02:50:14.012Z,1000.84
2018-08-13T02:51:14.028Z,1000.78
2018-08-13T02:52:14.049Z,1000.79
2018-08-13T02:53:14.069Z,1000.78
2018-08-13T02:54:14.089Z,1000.79
2018-08-13T02:55:14.114Z,1000.74
2018-08-13T02:56:14.132Z,1000.72
2018-08-13T02:57:14.150Z,1000.73
2018-08-13T02:58:14.195Z,1000.72
2018-08-13T02:59:14.196Z,1000.75
2018-08-13T03:00:14.214Z,1000.67
2018-08-13T03:01:14.234Z,1000.67
2018-08-13T03:02:14.251Z,1000.66
2018-08-13T03:03:14.273Z,1000.65
2018-08-13T03:04:14.293Z,1000.64
2018-08-13T03:05:14.313Z,1000.58
2018-08-13T03:06:14.337Z,1000.62
2018-08-13T03:07:14.353Z,1000.63
2018-08-13T03:08:14.373Z,1000.59
2018-08-13T03:09:14.392Z,1000.56
2018-08-13T03:10:14.412Z,1000.60
2018-08-13T03:11:14.434Z,1000.55
2018-08-13T03:12:14.454Z,1000.59
2018-08-13T03:13:14.475Z,1000.56
2018-08-13T03:14:14.495Z,1000.52
2018-08-13T03:15:14.513Z,1000.49
2018-08-13T03:16:14.535Z,1000.49
2018-08-13T03:17:14.556Z,1000.47
2018-08-13T03:18:14.575Z,1000.48
2018-08-13T03:19:14.597Z,1000.47
2018-08-13T03:20:14.617Z,1000.49
2018-08-13T03:21:14.639Z,1000.49
2018-08-13T03:22:14.655Z,1000.51
2018-08-13T03:23:14.677Z,1000.49
2018-08-13T03:24:14.699Z,1000.48
2018-08-13T03:25:14.721Z,1000.47
2018-08-13T03:26:14.746Z,1000.46
2018-08-13T03:27:14.759Z,1000.48
2018-08-13T03:28:14.776Z,1000.52
2018-08-13T03:29:14.797Z,1000.52
2018-08-13T03:30:14.818Z,1000.56
2018-08-13T03:31:14.834Z,1000.60
2018-08-13T03:32:14.858Z,1000.62
2018-08-13T03:33:14.877Z,1000.64
2018-08-13T03:34:14.900Z,1000.74
2018-08-13T03:35:14.925Z,1000.91
2018-08-13T03:36:14.939Z,1001.05
2018-08-13T03:37:14.959Z,1001.17
2018-08-13T03:38:14.979Z,1001.23
2018-08-13T03:39:14.999Z,1001.28
2018-08-13T03:40:15.026Z,1001.29
2018-08-13T03:41:15.043Z,1001.27
2018-08-13T03:42:15.065Z,1001.39
2018-08-13T03:43:15.080Z,1001.41
2018-08-13T03:44:15.105Z,1001.53
2018-08-13T03:45:15.121Z,1001.63
2018-08-13T03:46:15.143Z,1001.59
2018-08-13T03:47:15.163Z,1001.59
2018-08-13T03:48:15.185Z,1001.57
2018-08-13T03:49:15.207Z,1001.53
2018-08-13T03:50:15.222Z,1001.46
2018-08-13T03:51:15.244Z,1001.51
2018-08-13T03:52:15.263Z,1001.54
2018-08-13T03:53:15.283Z,1001.49
2018-08-13T03:54:15.307Z,1001.48
2018-08-13T03:55:15.325Z,1001.53
2018-08-13T03:56:15.346Z,1001.56
2018-08-13T03:57:15.366Z,1001.56
2018-08-13T03:58:15.385Z,1001.56
2018-08-13T03:59:15.403Z,1001.52
2018-08-13T04:00:15.426Z,1001.50
2018-08-13T04:01:15.446Z,1001.46
2018-08-13T04:02:15.519Z,1001.36
2018-08-13T04:03:15.486Z,1001.31
2018-08-13T04:04:15.505Z,1001.25
2018-08-13T04:05:15.525Z,1001.23
2018-08-13T04:06:15.547Z,1001.27
2018-08-13T04:07:15.567Z,1001.33
2018-08-13T04:08:15.585Z,1001.32
2018-08-13T04:09:15.608Z,1001.33
2018-08-13T04:10:15.627Z,1001.28
2018-08-13T04:11:15.647Z,1001.35
2018-08-13T04:12:15.669Z,1001.44
2018-08-13T04:13:15.689Z,1001.52
2018-08-13T04:14:15.708Z,1001.51
2018-08-13T04:15:15.731Z,1001.43
2018-08-13T04:16:15.747Z,1001.40
2018-08-13T04:17:15.769Z,1001.40
2018-08-13T04:18:15.788Z,1001.40
2018-08-13T04:19:15.813Z,1001.38
2018-08-13T04:20:15.831Z,1001.39
2018-08-13T04:21:15.849Z,1001.38
2018-08-13T04:22:15.871Z,1001.38
2018-08-13T04:23:15.891Z,1001.43
2018-08-13T04:24:15.908Z,1001.42
2018-08-13T04:25:15.932Z,1001.42
2018-08-13T04:26:15.953Z,1001.48
2018-08-13T04:27:15.975Z,1001.49
2018-08-13T04:28:15.991Z,1001.64
2018-08-13T04:29:16.011Z,1001.68
2018-08-13T04:30:16.038Z,1001.75
2018-08-13T04:31:16.053Z,1001.86
2018-08-13T04:32:16.069Z,1001.88
2018-08-13T04:33:16.095Z,1001.93
2018-08-13T04:34:16.115Z,1001.90
2018-08-13T04:35:16.134Z,1001.88
2018-08-13T04:36:16.154Z,1001.88
2018-08-13T04:37:16.172Z,1001.91
2018-08-13T04:38:16.199Z,1001.93
2018-08-13T04:39:16.212Z,1002.08
2018-08-13T04:40:16.238Z,1002.12
2018-08-13T04:41:16.265Z,1002.23
2018-08-13T04:42:16.283Z,1002.28
2018-08-13T04:43:16.301Z,1002.32
2018-08-13T04:44:16.317Z,1002.34
2018-08-13T04:45:16.337Z,1002.40
2018-08-13T04:46:16.358Z,1002.36
2018-08-13T04:47:16.377Z,1002.35
2018-08-13T04:48:16.400Z,1002.36
2018-08-13T04:49:16.418Z,1002.39
2018-08-13T04:50:16.443Z,1002.48
2018-08-13T04:51:16.461Z,1002.42
2018-08-13T04:52:16.553Z,1002.45
2018-08-13T04:53:16.501Z,1002.43
2018-08-13T04:54:16.520Z,1002.44
2018-08-13T04:55:16.543Z,1002.51
2018-08-13T04:56:16.563Z,1002.52
2018-08-13T04:57:16.583Z,1002.50
2018-08-13T04:58:16.602Z,1002.50
2018-08-13T04:59:16.624Z,1002.51
2018-08-13T05:00:16.645Z,1002.55
2018-08-13T05:01:16.664Z,1002.60
2018-08-13T05:02:16.685Z,1002.55
2018-08-13T05:03:16.710Z,1002.60
2018-08-13T05:04:16.725Z,1002.54
2018-08-13T05:05:16.761Z,1002.48
2018-08-13T05:06:16.768Z,1002.46
2018-08-13T05:07:16.820Z,1002.46
2018-08-13T05:08:16.806Z,1002.44
2018-08-13T05:09:16.829Z,1002.44
2018-08-13T05:10:16.851Z,1002.44
2018-08-13T05:11:16.869Z,1002.44
2018-08-13T05:12:16.891Z,1002.46
2018-08-13T05:13:16.909Z,1002.48
2018-08-13T05:14:16.929Z,1002.52
2018-08-13T05:15:16.952Z,1002.53
2018-08-13T05:16:16.971Z,1002.56
2018-08-13T05:17:16.991Z,1002.59
2018-08-13T05:18:17.010Z,1002.51
2018-08-13T05:19:17.031Z,1002.44
2018-08-13T05:20:17.052Z,1002.46
2018-08-13T05:21:17.154Z,1002.42
2018-08-13T05:22:17.092Z,1002.38
2018-08-13T05:23:17.115Z,1002.35
2018-08-13T05:24:17.134Z,1002.34
2018-08-13T05:25:17.155Z,1002.27
2018-08-13T05:26:17.175Z,1002.28
2018-08-13T05:27:17.194Z,1002.33
2018-08-13T05:28:17.217Z,1002.37
2018-08-13T05:29:17.235Z,1002.42
2018-08-13T05:30:17.269Z,1002.43
2018-08-13T05:31:17.277Z,1002.52
2018-08-13T05:32:17.295Z,1002.54
2018-08-13T05:33:17.321Z,1002.57
2018-08-13T05:34:17.342Z,1002.60
2018-08-13T05:35:17.359Z,1002.63
2018-08-13T05:36:17.379Z,1002.63
2018-08-13T05:37:17.399Z,1002.66
2018-08-13T05:38:17.442Z,1002.66
2018-08-13T05:39:17.443Z,1002.74
2018-08-13T05:40:17.460Z,1002.88
2018-08-13T05:41:17.482Z,1003.00
2018-08-13T05:42:17.502Z,1003.10
2018-08-13T05:43:17.523Z,1003.14
2018-08-13T05:44:17.545Z,1003.17
2018-08-13T05:45:17.563Z,1003.27
2018-08-13T05:46:17.583Z,1003.24
2018-08-13T05:47:17.604Z,1003.15
2018-08-13T05:48:17.622Z,1003.02
2018-08-13T05:49:17.643Z,1003.00
2018-08-13T05:50:17.665Z,1003.03
2018-08-13T05:51:17.686Z,1003.08
2018-08-13T05:52:17.706Z,1003.01
2018-08-13T05:53:17.726Z,1002.92
2018-08-13T05:54:17.747Z,1002.81
2018-08-13T05:55:17.773Z,1002.73
2018-08-13T05:56:17.787Z,1002.66
2018-08-13T05:57:17.809Z,1002.58
2018-08-13T05:58:17.831Z,1002.48
2018-08-13T05:59:17.852Z,1002.30
2018-08-13T06:00:17.872Z,1002.17
2018-08-13T06:01:17.895Z,1002.03
2018-08-13T06:02:17.915Z,1001.97
2018-08-13T06:03:17.931Z,1001.90
2018-08-13T06:04:17.956Z,1001.83
2018-08-13T06:05:17.971Z,1001.91
2018-08-13T06:06:17.994Z,1001.96
2018-08-13T06:07:18.016Z,1002.04
2018-08-13T06:08:18.033Z,1002.06
2018-08-13T06:09:18.052Z,1002.06
2018-08-13T06:10:18.072Z,1002.01
2018-08-13T06:11:18.219Z,1001.90
2018-08-13T06:12:18.115Z,1001.82
2018-08-13T06:13:18.136Z,1001.99
2018-08-13T06:14:18.156Z,1002.25
2018-08-13T06:15:18.176Z,1002.45
2018-08-13T06:16:18.196Z,1002.46
2018-08-13T06:17:18.220Z,1002.37
2018-08-13T06:18:18.241Z,1002.23
2018-08-13T06:19:18.258Z,1002.12
2018-08-13T06:20:18.280Z,1002.00
2018-08-13T06:21:18.305Z,1001.86
2018-08-13T06:22:18.329Z,1001.77
2018-08-13T06:23:18.342Z,1001.73
2018-08-13T06:24:18.374Z,1001.72
2018-08-13T06:25:18.382Z,1001.77
2018-08-13T06:26:18.404Z,1001.83
2018-08-13T06:27:18.422Z,1001.85
2018-08-13T06:28:18.459Z,1001.88
2018-08-13T06:29:18.463Z,1001.92
2018-08-13T06:30:18.481Z,1001.90
2018-08-13T06:31:18.504Z,1001.87
2018-08-13T06:32:18.526Z,1001.83
2018-08-13T06:33:18.545Z,1001.80
2018-08-13T06:34:18.564Z,1001.67
2018-08-13T06:35:18.589Z,1001.70
2018-08-13T06:36:18.606Z,1001.68
2018-08-13T06:37:18.662Z,1001.65
2018-08-13T06:38:18.645Z,1001.69
2018-08-13T06:39:18.667Z,1001.70
2018-08-13T06:40:18.691Z,1001.69
2018-08-13T06:41:18.706Z,1001.76
2018-08-13T06:42:18.727Z,1001.85
2018-08-13T06:43:18.747Z,1001.90
2018-08-13T06:44:18.830Z,1001.95
2018-08-13T06:45:18.790Z,1002.00
2018-08-13T06:46:18.815Z,1002.10
2018-08-13T06:47:18.832Z,1002.16
2018-08-13T06:48:18.856Z,1002.28
2018-08-13T06:49:18.869Z,1002.30
2018-08-13T06:50:18.891Z,1002.32
2018-08-13T06:51:18.912Z,1002.27
2018-08-13T06:52:18.932Z,1002.20
2018-08-13T06:53:18.953Z,1002.21
2018-08-13T06:54:18.974Z,1002.24
2018-08-13T06:55:18.994Z,1002.26
2018-08-13T06:56:19.011Z,1002.29
2018-08-13T06:57:19.037Z,1002.27
2018-08-13T06:58:19.056Z,1002.24
2018-08-13T06:59:19.080Z,1002.27
2018-08-13T07:00:19.100Z,1002.27
2018-08-13T07:01:19.116Z,1002.22
2018-08-13T07:02:19.137Z,1002.28
2018-08-13T07:03:19.160Z,1002.28
2018-08-13T07:04:19.176Z,1002.25
2018-08-13T07:05:19.199Z,1002.27
2018-08-13T07:06:19.217Z,1002.38
2018-08-13T07:07:19.239Z,1002.44
2018-08-13T07:08:19.264Z,1002.43
2018-08-13T07:09:19.280Z,1002.48
2018-08-13T07:10:19.312Z,1002.40
2018-08-13T07:11:19.321Z,1002.34
2018-08-13T07:12:19.339Z,1002.42
2018-08-13T07:13:19.361Z,1002.53
2018-08-13T07:14:19.382Z,1002.46
2018-08-13T07:15:19.401Z,1002.48
2018-08-13T07:16:19.423Z,1002.55
2018-08-13T07:17:19.443Z,1002.57
2018-08-13T07:18:19.465Z,1002.57
2018-08-13T07:19:19.486Z,1002.53
2018-08-13T07:20:19.506Z,1002.57
2018-08-13T07:21:19.524Z,1002.68
2018-08-13T07:22:19.638Z,1002.64
2018-08-13T07:23:19.567Z,1002.58
2018-08-13T07:24:19.586Z,1002.59
2018-08-13T07:25:19.607Z,1002.63
2018-08-13T07:26:19.627Z,1002.57
2018-08-13T07:27:19.648Z,1002.53
2018-08-13T07:28:19.668Z,1002.61
2018-08-13T07:29:19.687Z,1002.62
2018-08-13T07:30:19.709Z,1002.54
2018-08-13T07:31:19.729Z,1002.53
2018-08-13T07:32:19.749Z,1002.60
2018-08-13T07:33:19.793Z,1002.62
2018-08-13T07:34:19.791Z,1002.57
2018-08-13T07:35:19.813Z,1002.54
2018-08-13T07:36:19.829Z,1002.52
2018-08-13T07:37:19.855Z,1002.49
2018-08-13T07:38:19.879Z,1002.52
2018-08-13T07:39:19.924Z,1002.50
2018-08-13T07:40:19.915Z,1002.41
2018-08-13T07:41:19.934Z,1002.35
2018-08-13T07:42:19.973Z,1002.33
2018-08-13T07:43:19.973Z,1002.39
2018-08-13T07:44:19.993Z,1002.45
2018-08-13T07:45:20.014Z,1002.51
2018-08-13T07:46:20.036Z,1002.55
2018-08-13T07:47:20.056Z,1002.55
2018-08-13T07:48:20.080Z,1002.48
2018-08-13T07:49:20.095Z,1002.41
2018-08-13T07:50:20.116Z,1002.31
2018-08-13T07:51:20.139Z,1002.30
2018-08-13T07:52:20.166Z,1002.32
2018-08-13T07:53:20.178Z,1002.32
2018-08-13T07:54:20.198Z,1002.37
2018-08-13T07:55:20.219Z,1002.36
2018-08-13T07:56:20.242Z,1002.37
2018-08-13T07:57:20.260Z,1002.35
2018-08-13T07:58:20.280Z,1002.30
2018-08-13T07:59:20.307Z,1002.26
2018-08-13T08:00:20.328Z,1002.23
2018-08-13T08:01:20.343Z,1002.25
2018-08-13T08:02:20.361Z,1002.25
2018-08-13T08:03:20.381Z,1002.29
2018-08-13T08:04:20.406Z,1002.28
2018-08-13T08:05:20.422Z,1002.32
2018-08-13T08:06:20.443Z,1002.33
2018-08-13T08:07:20.464Z,1002.38
2018-08-13T08:08:20.483Z,1002.44
2018-08-13T08:09:20.558Z,1002.45
2018-08-13T08:10:20.525Z,1002.48
2018-08-13T08:11:20.547Z,1002.56
2018-08-13T08:12:20.564Z,1002.51
2018-08-13T08:13:20.585Z,1002.47
2018-08-13T08:14:20.606Z,1002.41
2018-08-13T08:15:20.632Z,1002.44
2018-08-13T08:16:20.650Z,1002.42
2018-08-13T08:17:20.667Z,1002.46
2018-08-13T08:18:20.689Z,1002.50
2018-08-13T08:19:20.710Z,1002.47
2018-08-13T08:20:20.729Z,1002.48
2018-08-13T08:21:20.767Z,1002.52
2018-08-13T08:22:20.773Z,1002.51
2018-08-13T08:23:20.792Z,1002.52
2018-08-13T08:24:20.812Z,1002.54
2018-08-13T08:25:20.833Z,1002.57
2018-08-13T08:26:20.852Z,1002.54
2018-08-13T08:27:20.876Z,1002.51
2018-08-13T08:28:20.890Z,1002.51
2018-08-13T08:29:20.996Z,1002.52
2018-08-13T08:30:20.933Z,1002.53
2018-08-13T08:31:20.954Z,1002.50
2018-08-13T08:32:20.974Z,1002.48
2018-08-13T08:33:20.993Z,1002.54
2018-08-13T08:34:21.014Z,1002.50
2018-08-13T08:35:21.039Z,1002.50
2018-08-13T08:36:21.055Z,1002.52
2018-08-13T08:37:21.077Z,1002.53
2018-08-13T08:38:21.096Z,1002.55
2018-08-13T08:39:21.127Z,1002.56
2018-08-13T08:40:21.152Z,1002.53
2018-08-13T08:41:21.159Z,1002.44
2018-08-13T08:42:21.178Z,1002.41
2018-08-13T08:43:21.199Z,1002.44
2018-08-13T08:44:21.219Z,1002.48
2018-08-13T08:45:21.243Z,1002.48
2018-08-13T08:46:21.260Z,1002.49
2018-08-13T08:47:21.280Z,1002.53
2018-08-13T08:48:21.300Z,1002.59
2018-08-13T08:49:21.320Z,1002.58
2018-08-13T08:50:21.342Z,1002.53
2018-08-13T08:51:21.362Z,1002.50
2018-08-13T08:52:21.381Z,1002.52
2018-08-13T08:53:21.404Z,1002.52
2018-08-13T08:54:21.425Z,1002.52
2018-08-13T08:55:21.443Z,1002.52
2018-08-13T08:56:21.463Z,1002.50
2018-08-13T08:57:21.486Z,1002.50
2018-08-13T08:58:21.507Z,1002.53
2018-08-13T08:59:21.526Z,1002.57
2018-08-13T09:00:21.545Z,1002.59
2018-08-13T09:01:21.573Z,1002.64
2018-08-13T09:02:21.589Z,1002.60
2018-08-13T09:03:21.609Z,1002.67
2018-08-13T09:04:21.634Z,1002.73
2018-08-13T09:05:21.649Z,1002.69
2018-08-13T09:06:21.671Z,1002.70
2018-08-13T09:07:21.685Z,1002.73
2018-08-13T09:08:21.708Z,1002.72
2018-08-13T09:09:21.731Z,1002.65
2018-08-13T09:10:21.749Z,1002.62
2018-08-13T09:11:21.770Z,1002.61
2018-08-13T09:12:21.791Z,1002.59
2018-08-13T09:13:21.810Z,1002.57
2018-08-13T09:14:21.840Z,1002.55
2018-08-13T09:15:21.853Z,1002.52
2018-08-13T09:16:21.872Z,1002.53
2018-08-13T09:17:21.892Z,1002.53
2018-08-13T09:18:21.917Z,1002.55
2018-08-13T09:19:21.936Z,1002.53
2018-08-13T09:20:21.956Z,1002.57
2018-08-13T09:21:21.976Z,1002.60
2018-08-13T09:22:21.995Z,1002.64
2018-08-13T09:23:22.016Z,1002.64
2018-08-13T09:24:22.037Z,1002.61
2018-08-13T09:25:22.056Z,1002.56
2018-08-13T09:26:22.076Z,1002.52
2018-08-13T09:27:22.096Z,1002.52
2018-08-13T09:28:22.119Z,1002.49
2018-08-13T09:29:22.138Z,1002.42
2018-08-13T09:30:22.158Z,1002.44
2018-08-13T09:31:22.179Z,1002.39
2018-08-13T09:32:22.199Z,1002.39
2018-08-13T09:33:22.221Z,1002.34
2018-08-13T09:34:22.241Z,1002.35
2018-08-13T09:35:22.264Z,1002.36
2018-08-13T09:36:22.281Z,1002.36
2018-08-13T09:37:22.304Z,1002.39
2018-08-13T09:38:22.322Z,1002.39
2018-08-13T09:39:22.347Z,1002.42
2018-08-13T09:40:22.368Z,1002.40
2018-08-13T09:41:22.384Z,1002.41
2018-08-13T09:42:22.405Z,1002.40
2018-08-13T09:43:22.423Z,1002.35
2018-08-13T09:44:22.442Z,1002.33
2018-08-13T09:45:22.466Z,1002.36
2018-08-13T09:46:22.491Z,1002.39
2018-08-13T09:47:22.506Z,1002.39
2018-08-13T09:48:22.526Z,1002.43
2018-08-13T09:49:22.545Z,1002.42
2018-08-13T09:50:22.565Z,1002.37
2018-08-13T09:51:22.586Z,1002.36
2018-08-13T09:52:22.607Z,1002.41
2018-08-13T09:53:22.627Z,1002.35
2018-08-13T09:54:22.649Z,1002.35
2018-08-13T09:55:22.668Z,1002.34
2018-08-13T09:56:22.689Z,1002.28
2018-08-13T09:57:22.710Z,1002.29
2018-08-13T09:58:22.733Z,1002.25
2018-08-13T09:59:22.749Z,1002.25
2018-08-13T10:00:22.779Z,1002.18
2018-08-13T10:01:22.795Z,1002.25
2018-08-13T10:02:22.815Z,1002.22
2018-08-13T10:03:22.835Z,1002.24
2018-08-13T10:04:22.851Z,1002.25
2018-08-13T10:05:22.876Z,1002.32
2018-08-13T10:06:22.895Z,1002.33
2018-08-13T10:07:22.913Z,1002.39
2018-08-13T10:08:22.935Z,1002.40
2018-08-13T10:09:23.021Z,1002.34
2018-08-13T10:10:22.973Z,1002.36
2018-08-13T10:11:22.995Z,1002.37
2018-08-13T10:12:23.017Z,1002.39
2018-08-13T10:13:23.035Z,1002.37
2018-08-13T10:14:23.056Z,1002.41
2018-08-13T10:15:23.076Z,1002.32
2018-08-13T10:16:23.097Z,1002.34
2018-08-13T10:17:23.118Z,1002.34
2018-08-13T10:18:23.138Z,1002.30
2018-08-13T10:19:23.158Z,1002.27
2018-08-13T10:20:23.179Z,1002.32
2018-08-13T10:21:23.199Z,1002.33
2018-08-13T10:22:23.219Z,1002.34
2018-08-13T10:23:23.241Z,1002.35
2018-08-13T10:24:23.261Z,1002.35
2018-08-13T10:25:23.281Z,1002.33
2018-08-13T10:26:23.302Z,1002.32
2018-08-13T10:27:23.322Z,1002.35
2018-08-13T10:28:23.342Z,1002.34
2018-08-13T10:29:23.361Z,1002.33
2018-08-13T10:30:23.415Z,1002.33
2018-08-13T10:31:23.405Z,1002.37
2018-08-13T10:32:23.423Z,1002.37
2018-08-13T10:33:23.444Z,1002.38
2018-08-13T10:34:23.469Z,1002.37
2018-08-13T10:35:23.486Z,1002.33
2018-08-13T10:36:23.506Z,1002.32
2018-08-13T10:37:23.545Z,1002.35
2018-08-13T10:38:23.546Z,1002.38
2018-08-13T10:39:23.572Z,1002.32
2018-08-13T10:40:23.595Z,1002.35
2018-08-13T10:41:23.609Z,1002.26
2018-08-13T10:42:23.627Z,1002.25
2018-08-13T10:43:23.660Z,1002.24
2018-08-13T10:44:23.667Z,1002.23
2018-08-13T10:45:23.689Z,1002.23
2018-08-13T10:46:23.709Z,1002.18
2018-08-13T10:47:23.729Z,1002.18
2018-08-13T10:48:23.751Z,1002.18
2018-08-13T10:49:23.784Z,1002.17
2018-08-13T10:50:23.791Z,1002.16
2018-08-13T10:51:23.812Z,1002.12
2018-08-13T10:52:23.832Z,1002.09
2018-08-13T10:53:23.851Z,1002.09
2018-08-13T10:54:23.873Z,1002.08
2018-08-13T10:55:23.896Z,1002.05
2018-08-13T10:56:23.913Z,1002.06
2018-08-13T10:57:23.938Z,1002.07
2018-08-13T10:58:23.954Z,1002.05
2018-08-13T10:59:23.977Z,1002.04
2018-08-13T11:00:23.997Z,1002.02
2018-08-13T11:01:24.092Z,1002.03
2018-08-13T11:02:24.036Z,1001.99
2018-08-13T11:03:24.058Z,1002.02
2018-08-13T11:04:24.078Z,1002.02
2018-08-13T11:05:24.096Z,1002.01
2018-08-13T11:06:24.123Z,1002.01
2018-08-13T11:07:24.139Z,1002.03
2018-08-13T11:08:24.158Z,1002.04
2018-08-13T11:09:24.177Z,1002.03
2018-08-13T11:10:24.236Z,1002.04
2018-08-13T11:11:24.224Z,1002.07
2018-08-13T11:12:24.238Z,1002.07
2018-08-13T11:13:24.271Z,1002.11
2018-08-13T11:14:24.286Z,1002.06
2018-08-13T11:15:24.303Z,1002.01
2018-08-13T11:16:24.320Z,1002.00
2018-08-13T11:17:24.343Z,1002.01
2018-08-13T11:18:24.365Z,1002.01
2018-08-13T11:19:24.386Z,1001.97
2018-08-13T11:20:24.402Z,1002.00
2018-08-13T11:21:24.424Z,1001.97
2018-08-13T11:22:24.444Z,1001.90
2018-08-13T11:23:24.466Z,1001.89
2018-08-13T11:24:24.486Z,1001.86
2018-08-13T11:25:24.549Z,1001.82
2018-08-13T11:26:24.527Z,1001.83
2018-08-13T11:27:24.545Z,1001.80
2018-08-13T11:28:24.567Z,1001.82
2018-08-13T11:29:24.587Z,1001.77
2018-08-13T11:30:24.607Z,1001.76
2018-08-13T11:31:24.628Z,1001.73
2018-08-13T11:32:24.649Z,1001.73
2018-08-13T11:33:24.669Z,1001.64
2018-08-13T11:34:24.691Z,1001.60
2018-08-13T11:35:24.711Z,1001.57
2018-08-13T11:36:24.729Z,1001.62
2018-08-13T11:37:24.754Z,1001.53
2018-08-13T11:38:24.781Z,1001.49
2018-08-13T11:39:24.802Z,1001.43
2018-08-13T11:40:24.811Z,1001.42
2018-08-13T11:41:24.836Z,1001.39
2018-08-13T11:42:24.853Z,1001.35
2018-08-13T11:43:24.873Z,1001.29
2018-08-13T11:44:24.899Z,1001.29
2018-08-13T11:45:24.914Z,1001.28
2018-08-13T11:46:24.935Z,1001.30
2018-08-13T11:47:24.954Z,1001.29
2018-08-13T11:48:24.975Z,1001.27
2018-08-13T11:49:24.996Z,1001.25
2018-08-13T11:50:25.015Z,1001.28
2018-08-13T11:51:25.036Z,1001.28
2018-08-13T11:52:25.060Z,1001.25
2018-08-13T11:53:25.077Z,1001.23
2018-08-13T11:54:25.098Z,1001.25
2018-08-13T11:55:25.120Z,1001.23
2018-08-13T11:56:25.179Z,1001.23
2018-08-13T11:57:25.180Z,1001.24
2018-08-13T11:58:25.178Z,1001.23
2018-08-13T11:59:25.199Z,1001.20
2018-08-13T12:00:25.227Z,1001.18
2018-08-13T12:01:25.239Z,1001.17
2018-08-13T12:02:25.261Z,1001.14
2018-08-13T12:03:25.280Z,1001.16
2018-08-13T12:04:25.303Z,1001.12
2018-08-13T12:05:25.323Z,1001.07
2018-08-13T12:06:25.343Z,1001.05
2018-08-13T12:07:25.363Z,1001.04
2018-08-13T12:08:25.404Z,1001.07
2018-08-13T12:09:25.408Z,1001.00
2018-08-13T12:10:25.425Z,1000.94
2018-08-13T12:11:25.444Z,1001.02
2018-08-13T12:12:25.465Z,1000.98
2018-08-13T12:13:25.486Z,1000.96
2018-08-13T12:14:25.509Z,1000.92
2018-08-13T12:15:25.533Z,1000.96
2018-08-13T12:16:25.548Z,1000.91
2018-08-13T12:17:25.577Z,1000.88
2018-08-13T12:18:25.589Z,1000.77
2018-08-13T12:19:25.612Z,1000.85
2018-08-13T12:20:25.633Z,1000.85
2018-08-13T12:21:25.651Z,1000.81
2018-08-13T12:22:25.670Z,1000.90
2018-08-13T12:23:25.691Z,1000.81
2018-08-13T12:24:25.711Z,1000.73
2018-08-13T12:25:25.729Z,1000.75
2018-08-13T12:26:25.760Z,1000.72
2018-08-13T12:27:25.772Z,1000.76
2018-08-13T12:28:25.791Z,1000.74
2018-08-13T12:29:25.817Z,1000.75
2018-08-13T12:30:25.833Z,1000.73
2018-08-13T12:31:25.853Z,1000.73
2018-08-13T12:32:25.875Z,1000.67
2018-08-13T12:33:25.894Z,1000.68
2018-08-13T12:34:25.918Z,1000.75
2018-08-13T12:35:25.937Z,1000.72
2018-08-13T12:36:25.956Z,1000.67